Time;durP1;ratioP1;P1;durP2;ratioP2;P2;SDS_P1;SDS_P2;PMS_P1;PMS_P2;Temp;Humidity;BMP_temperature;BMP_pressure;BME280_temperature;BME280_humidity;BME280_pressure;Samples;Min_cycle;Max_cycle;Signal;HPM_P1;HPM_P2
2021/12/26 00:00:12;;;;;;;5.70;2.33;;;;;;;;;;5088964;28;20102;-44
2021/12/26 00:02:39;;;;;;;7.28;2.22;;;;;;;;;;5089480;28;20400;-42
2021/12/26 00:05:05;;;;;;;5.43;1.85;;;;;;;;;;5089474;28;20060;-42
2021/12/26 00:07:31;;;;;;;7.43;2.22;;;;;;;;;;5089409;28;20059;-43
2021/12/26 00:09:57;;;;;;;6.90;2.03;;;;;;;;;;5089728;28;20369;-41
2021/12/26 00:12:23;;;;;;;6.40;1.98;;;;;;;;;;5089851;28;20044;-45
2021/12/26 00:14:49;;;;;;;6.97;2.35;;;;;;;;;;5088956;28;20046;-44
2021/12/26 00:17:15;;;;;;;6.85;2.08;;;;;;;;;;5089770;28;20051;-46
2021/12/26 00:19:41;;;;;;;5.70;1.90;;;;;;;;;;5089190;28;20086;-45
2021/12/26 00:22:08;;;;;;;7.28;2.35;;;;;;;;;;5089382;28;20511;-40
2021/12/26 00:24:35;;;;;;;6.38;2.20;;;;;;;;;;5089092;28;20066;-42
2021/12/26 00:27:01;;;;;;;5.28;2.08;;;;;;;;;;5088919;28;20590;-41
2021/12/26 00:29:29;;;;;;;7.53;2.70;;;;;;;;;;5089176;28;20089;-41
2021/12/26 00:31:57;;;;;;;5.43;1.80;;;;;;;;;;5088882;28;20067;-40
2021/12/26 00:34:23;;;;;;;8.82;2.20;;;;;;;;;;5088627;28;20040;-42
2021/12/26 00:36:49;;;;;;;7.60;1.98;;;;;;;;;;5086874;28;20051;-41
2021/12/26 00:39:16;;;;;;;4.38;1.42;;;;;;;;;;5088033;28;20052;-41
2021/12/26 00:41:42;;;;;;;5.00;1.88;;;;;;;;;;5087696;28;20129;-40
2021/12/26 00:44:09;;;;;;;7.40;2.03;;;;;;;;;;5088044;28;20040;-41
2021/12/26 00:46:37;;;;;;;7.07;1.95;;;;;;;;;;5087629;28;20432;-42
2021/12/26 00:49:05;;;;;;;4.65;1.90;;;;;;;;;;5087789;28;20051;-45
2021/12/26 00:51:31;;;;;;;6.75;2.67;;;;;;;;;;5087635;28;20043;-42
2021/12/26 00:53:57;;;;;;;6.18;2.33;;;;;;;;;;5087557;28;20450;-45
2021/12/26 00:56:24;;;;;;;3.50;1.80;;;;;;;;;;5087759;28;20485;-44
2021/12/26 00:58:50;;;;;;;4.85;2.20;;;;;;;;;;5087564;28;20056;-44
2021/12/26 01:01:16;;;;;;;6.07;2.03;;;;;;;;;;5087679;28;20040;-42
2021/12/26 01:03:43;;;;;;;8.02;2.20;;;;;;;;;;5087275;28;20062;-46
2021/12/26 01:06:09;;;;;;;5.22;2.25;;;;;;;;;;5087231;28;20508;-42
2021/12/26 01:08:39;;;;;;;9.02;2.55;;;;;;;;;;5087297;28;20075;-45
2021/12/26 01:11:15;;;;;;;5.88;2.15;;;;;;;;;;5087673;28;20060;-42
2021/12/26 01:13:44;;;;;;;8.07;3.10;;;;;;;;;;5087372;28;20144;-45
2021/12/26 01:16:11;;;;;;;6.70;2.42;;;;;;;;;;5087493;28;20489;-44
2021/12/26 01:18:40;;;;;;;6.47;1.92;;;;;;;;;;5087556;28;20044;-45
2021/12/26 01:21:18;;;;;;;3.50;1.63;;;;;;;;;;5087744;28;20044;-44
2021/12/26 01:23:49;;;;;;;4.75;2.05;;;;;;;;;;5087959;28;20051;-41
2021/12/26 01:26:16;;;;;;;9.13;2.42;;;;;;;;;;5087514;28;20052;-42
2021/12/26 01:28:42;;;;;;;6.25;1.75;;;;;;;;;;5087683;28;20055;-41
2021/12/26 01:31:08;;;;;;;3.13;1.38;;;;;;;;;;5087899;28;20040;-40
2021/12/26 01:33:35;;;;;;;5.35;1.65;;;;;;;;;;5087762;28;20044;-41
2021/12/26 01:36:01;;;;;;;3.47;1.63;;;;;;;;;;5088206;28;20136;-43
2021/12/26 01:38:29;;;;;;;8.05;1.95;;;;;;;;;;5087713;28;20101;-40
2021/12/26 01:40:56;;;;;;;4.25;1.90;;;;;;;;;;5087795;28;20044;-41
2021/12/26 01:43:24;;;;;;;4.90;1.85;;;;;;;;;;5087049;28;20488;-41
2021/12/26 01:45:50;;;;;;;5.72;2.00;;;;;;;;;;5086639;28;20496;-43
2021/12/26 01:48:17;;;;;;;3.33;1.50;;;;;;;;;;5086777;28;20051;-43
2021/12/26 01:50:44;;;;;;;4.22;1.75;;;;;;;;;;5086950;28;20135;-40
2021/12/26 01:53:13;;;;;;;5.13;1.63;;;;;;;;;;5086945;28;20050;-42
2021/12/26 01:58:08;;;;;;;6.63;2.20;;;;;;;;;;5087147;28;20051;-41
2021/12/26 02:00:36;;;;;;;8.25;1.75;;;;;;;;;;5086984;28;20094;-41
2021/12/26 02:03:02;;;;;;;5.90;1.90;;;;;;;;;;5087196;28;20094;-41
2021/12/26 02:05:28;;;;;;;4.85;1.63;;;;;;;;;;5086416;28;20044;-41
2021/12/26 02:07:54;;;;;;;3.92;1.83;;;;;;;;;;5086370;28;20260;-40
2021/12/26 02:10:22;;;;;;;5.13;1.92;;;;;;;;;;5085681;28;20052;-40
2021/12/26 02:12:48;;;;;;;4.60;2.03;;;;;;;;;;5086714;28;20044;-40
2021/12/26 02:15:14;;;;;;;4.80;1.33;;;;;;;;;;5086645;28;20055;-41
2021/12/26 02:17:42;;;;;;;3.45;1.60;;;;;;;;;;5086766;28;20044;-41
2021/12/26 02:20:17;;;;;;;2.00;0.82;;;;;;;;;;5086821;28;20131;-40
2021/12/26 02:22:49;;;;;;;3.97;1.42;;;;;;;;;;5086407;28;20488;-42
2021/12/26 02:25:29;;;;;;;3.40;1.30;;;;;;;;;;5086674;28;20130;-41
2021/12/26 02:27:56;;;;;;;3.45;1.35;;;;;;;;;;5086675;28;20060;-43
2021/12/26 02:30:23;;;;;;;4.20;1.83;;;;;;;;;;5087639;28;20091;-45
2021/12/26 02:32:50;;;;;;;4.47;1.67;;;;;;;;;;5087629;28;20056;-43
2021/12/26 02:35:19;;;;;;;5.28;1.95;;;;;;;;;;5087739;28;20079;-45
2021/12/26 02:37:45;;;;;;;6.82;2.30;;;;;;;;;;5087845;28;20044;-46
2021/12/26 02:40:11;;;;;;;4.88;1.90;;;;;;;;;;5091222;28;20136;-45
2021/12/26 02:42:40;;;;;;;4.53;1.75;;;;;;;;;;5090811;28;20474;-44
2021/12/26 02:45:06;;;;;;;3.83;1.40;;;;;;;;;;5091392;28;20181;-44
2021/12/26 02:47:39;;;;;;;3.40;1.52;;;;;;;;;;5091157;28;20048;-46
2021/12/26 02:50:13;;;;;;;3.65;1.70;;;;;;;;;;5090768;28;20101;-46
2021/12/26 02:52:40;;;;;;;5.32;1.60;;;;;;;;;;5089993;28;20044;-48
2021/12/26 02:55:06;;;;;;;4.78;1.73;;;;;;;;;;5090411;28;20139;-44
2021/12/26 02:57:32;;;;;;;3.67;1.50;;;;;;;;;;5089996;28;20040;-42
2021/12/26 03:00:05;;;;;;;4.75;1.50;;;;;;;;;;5089654;28;20046;-43
2021/12/26 03:02:30;;;;;;;;;;;-6.40;99.90;;;;;;5090192;28;20083;-43
2021/12/26 03:04:58;;;;;;;3.85;1.55;;;;;;;;;;5089835;28;19975;-43
2021/12/26 03:07:24;;;;;;;3.58;1.50;;;;;;;;;;5089364;28;20082;-47
2021/12/26 03:09:58;;;;;;;3.75;1.23;;;;;;;;;;5089375;28;20131;-43
2021/12/26 03:12:25;;;;;;;4.15;1.73;;;;;;;;;;5089693;28;20401;-43
2021/12/26 03:14:51;;;;;;;5.05;1.83;;;;;;;;;;5089228;28;20739;-42
2021/12/26 03:17:17;;;;;;;4.90;1.50;;;;;;;;;;5089497;28;20050;-44
2021/12/26 03:19:43;;;;;;;4.25;1.52;;;;;;;;;;5089090;28;20040;-44
2021/12/26 03:22:09;;;;;;;3.72;1.13;;;;;;;;;;5089310;28;20056;-42
2021/12/26 03:24:37;;;;;;;4.35;2.17;;;;;;;;;;5089526;28;20058;-42
2021/12/26 03:27:05;;;;;;;7.68;1.60;;;;;;;;;;5089455;28;20699;-43
2021/12/26 03:29:32;;;;;;;3.10;1.40;;;;;;;;;;5089186;28;20066;-44
2021/12/26 03:31:58;;;;;;;3.92;1.80;;;;;;;;;;5089415;28;20086;-43
2021/12/26 03:34:24;;;;;;;2.20;1.10;;;;;;;;;;5089250;28;20050;-43
2021/12/26 03:36:53;;;;;;;2.53;1.10;;;;;;;;;;5089816;28;20386;-42
2021/12/26 03:39:20;;;;;;;4.15;1.50;;;;;;;;;;5090295;28;20059;-43
2021/12/26 03:41:46;;;;;;;3.78;1.17;;;;;;;;;;5089882;28;20079;-44
2021/12/26 03:44:15;;;;;;;4.82;1.50;;;;;;;;;;5090048;28;20032;-43
2021/12/26 03:46:43;;;;;;;4.35;1.48;;;;;;;;;;5089648;28;20048;-42
2021/12/26 03:49:09;;;;;;;5.32;1.65;;;;;;;;;;5089439;28;20055;-42
2021/12/26 03:51:35;;;;;;;2.65;1.30;;;;;;;;;;5089465;28;20056;-43
2021/12/26 03:54:06;;;;;;;5.13;1.83;;;;;;;;;;5089877;28;20463;-43
2021/12/26 03:56:32;;;;;;;5.10;1.77;;;;;;;;;;5089722;28;20132;-42
2021/12/26 03:58:58;;;;;;;4.80;1.30;;;;;;;;;;5089670;28;20040;-42
2021/12/26 04:01:25;;;;;;;5.53;1.75;;;;;;;;;;5089436;28;20520;-44
2021/12/26 04:03:53;;;;;;;5.00;1.58;;;;;;;;;;5089206;28;20040;-43
2021/12/26 04:06:19;;;;;;;6.60;1.38;;;;;;;;;;5089395;28;20103;-45
2021/12/26 04:08:45;;;;;;;4.45;1.90;;;;;;;;;;5089249;28;20052;-44
2021/12/26 04:11:11;;;;;;;4.32;1.30;;;;;;;;;;5089495;28;20055;-44
2021/12/26 04:13:37;;;;;;;3.83;1.77;;;;;;;;;;5088719;28;20078;-43
2021/12/26 04:16:04;;;;;;;5.20;1.42;;;;;;;;;;5088575;28;20036;-43
2021/12/26 04:18:30;;;;;;;6.85;1.67;;;;;;;;;;5088255;28;20040;-46
2021/12/26 04:20:56;;;;;;;5.85;2.13;;;;;;;;;;5088494;28;20767;-43
2021/12/26 04:23:22;;;;;;;3.95;1.67;;;;;;;;;;5088442;28;20530;-42
2021/12/26 04:25:50;;;;;;;4.80;1.85;;;;;;;;;;5087071;28;20193;-43
2021/12/26 04:28:19;;;;;;;5.20;2.10;;;;;;;;;;5088219;28;20431;-44
2021/12/26 04:30:46;;;;;;;4.10;1.70;;;;;;;;;;5088143;28;20130;-43
2021/12/26 04:33:14;;;;;;;4.45;1.65;;;;;;;;;;5087039;28;20047;-46
2021/12/26 04:35:42;;;;;;;5.10;1.70;;;;;;;;;;5088103;28;20040;-43
2021/12/26 04:38:08;;;;;;;3.80;1.50;;;;;;;;;;5088138;28;20040;-46
2021/12/26 04:40:34;;;;;;;7.97;1.67;;;;;;;;;;5087895;28;20133;-43
2021/12/26 04:43:00;;;;;;;7.03;2.10;;;;;;;;;;5086950;28;20438;-44
2021/12/26 04:45:26;;;;;;;4.10;1.67;;;;;;;;;;5088041;28;20140;-43
2021/12/26 04:47:53;;;;;;;6.93;2.22;;;;;;;;;;5087813;28;20075;-43
2021/12/26 04:50:21;;;;;;;4.00;1.30;;;;;;;;;;5088088;28;20047;-43
2021/12/26 04:52:48;;;;;;;4.90;1.70;;;;;;;;;;5086278;28;20476;-43
2021/12/26 04:55:15;;;;;;;2.70;1.23;;;;;;;;;;5087673;28;20560;-43
2021/12/26 04:57:41;;;;;;;7.10;1.95;;;;;;;;;;5087590;28;20052;-44
2021/12/26 05:00:08;;;;;;;2.70;1.17;;;;;;;;;;5087618;28;20518;-43
2021/12/26 05:02:36;;;;;;;6.10;1.70;;;;;;;;;;5088241;28;20044;-44
2021/12/26 05:05:04;;;;;;;6.15;1.92;;;;;;;;;;5088473;28;20567;-43
2021/12/26 05:07:32;;;;;;;3.25;1.40;;;;;;;;;;5088014;28;20064;-44
2021/12/26 05:10:00;;;;;;;6.07;2.00;;;;;;;;;;5088443;28;20050;-44
2021/12/26 05:12:26;;;;;;;3.72;1.45;;;;;;;;;;5088352;28;20040;-43
2021/12/26 05:14:53;;;;;;;5.32;2.00;;;;;;;;;;5087921;28;20044;-45
2021/12/26 05:17:19;;;;;;;4.53;1.85;;;;;;;;;;5088393;28;20048;-43
2021/12/26 05:19:45;;;;;;;6.10;1.50;;;;;;;;;;5088108;28;20040;-42
2021/12/26 05:22:11;;;;;;;6.15;1.70;;;;;;;;;;5088332;28;20101;-44
2021/12/26 05:24:39;;;;;;;4.70;1.85;;;;;;;;;;5088001;28;20048;-45
2021/12/26 05:27:06;;;;;;;6.32;1.75;;;;;;;;;;5088058;28;20408;-42
2021/12/26 05:29:32;;;;;;;4.68;2.10;;;;;;;;;;5087619;28;20060;-44
2021/12/26 05:31:58;;;;;;;3.72;1.77;;;;;;;;;;5087915;28;20500;-41
2021/12/26 05:34:25;;;;;;;4.28;1.73;;;;;;;;;;5086278;28;20100;-42
2021/12/26 05:36:52;;;;;;;6.38;1.95;;;;;;;;;;5087176;28;20737;-40
2021/12/26 05:39:18;;;;;;;2.63;0.98;;;;;;;;;;5086950;28;20040;-39
2021/12/26 05:41:47;;;;;;;5.00;2.08;;;;;;;;;;5086906;28;20044;-42
2021/12/26 05:44:13;;;;;;;4.85;1.92;;;;;;;;;;5087128;28;20094;-41
2021/12/26 05:46:39;;;;;;;4.28;1.90;;;;;;;;;;5085504;28;20056;-40
2021/12/26 05:49:05;;;;;;;4.88;1.63;;;;;;;;;;5087180;28;20055;-42
2021/12/26 05:51:32;;;;;;;4.50;1.90;;;;;;;;;;5086739;28;20058;-41
2021/12/26 05:53:58;;;;;;;4.70;2.40;;;;;;;;;;5086734;28;20051;-40
2021/12/26 05:56:24;;;;;;;4.03;1.75;;;;;;;;;;5087035;28;20131;-45
2021/12/26 05:58:52;;;;;;;3.00;1.52;;;;;;;;;;5086760;28;20040;-43
2021/12/26 06:01:18;;;;;;;5.10;2.03;;;;;;;;;;5086600;28;20048;-41
2021/12/26 06:03:44;;;;;;;6.45;2.00;;;;;;;;;;5086485;28;20520;-42
2021/12/26 06:06:10;;;;;;;4.60;1.73;;;;;;;;;;5085301;28;20056;-40
2021/12/26 06:08:38;;;;;;;3.15;1.48;;;;;;;;;;5086583;28;20052;-41
2021/12/26 06:11:04;;;;;;;6.40;2.20;;;;;;;;;;5086926;28;20048;-43
2021/12/26 06:13:31;;;;;;;2.83;1.48;;;;;;;;;;5088507;28;20075;-40
2021/12/26 06:16:00;;;;;;;4.25;1.75;;;;;;;;;;5090522;28;20089;-40
2021/12/26 06:18:26;;;;;;;5.22;1.73;;;;;;;;;;5090668;28;20134;-40
2021/12/26 06:20:52;;;;;;;5.30;2.00;;;;;;;;;;5090414;28;20369;-40
2021/12/26 06:23:18;;;;;;;5.28;2.13;;;;;;;;;;5091190;28;20076;-41
2021/12/26 06:25:46;;;;;;;3.95;1.58;;;;;;;;;;5090996;28;20055;-40
2021/12/26 06:28:12;;;;;;;6.13;1.95;;;;;;;;;;5091237;28;20113;-41
2021/12/26 06:30:38;;;;;;;3.95;1.52;;;;;;;;;;5091164;28;20048;-42
2021/12/26 06:33:06;;;;;;;3.53;1.77;;;;;;;;;;5091254;28;20058;-40
2021/12/26 06:35:32;;;;;;;3.70;1.90;;;;;;;;;;5091050;28;20047;-42
2021/12/26 06:37:58;;;;;;;6.00;1.95;;;;;;;;;;5090959;28;20130;-40
2021/12/26 06:40:24;;;;;;;4.45;1.80;;;;;;;;;;5090825;28;20083;-40
2021/12/26 06:42:52;;;;;;;4.75;2.13;;;;;;;;;;5090708;28;20436;-40
2021/12/26 06:45:18;;;;;;;4.63;1.85;;;;;;;;;;5090704;28;20480;-41
2021/12/26 06:47:46;;;;;;;5.88;1.95;;;;;;;;;;5090538;28;20048;-40
2021/12/26 06:50:14;;;;;;;6.03;2.00;;;;;;;;;;5090023;28;20054;-40
2021/12/26 06:52:42;;;;;;;5.03;1.95;;;;;;;;;;5090002;28;20075;-40
2021/12/26 06:55:09;;;;;;;7.28;2.53;;;;;;;;;;5090101;28;20083;-40
2021/12/26 06:57:36;;;;;;;5.20;1.88;;;;;;;;;;5089863;28;20127;-40
2021/12/26 07:00:04;;;;;;;5.95;2.00;;;;;;;;;;5089722;28;20079;-41
2021/12/26 07:02:30;;;;;;;7.45;2.13;;;;;;;;;;5089762;28;20083;-40
2021/12/26 07:04:56;;;;;;;4.55;2.08;;;;;;;;;;5089655;28;20094;-40
2021/12/26 07:07:22;;;;;;;6.75;2.45;;;;;;;;;;5090010;28;20092;-40
2021/12/26 07:09:48;;;;;;;4.40;1.90;;;;;;;;;;5090031;28;20105;-41
2021/12/26 07:12:14;;;;;;;5.75;2.10;;;;;;;;;;5090113;28;20043;-39
2021/12/26 07:14:41;;;;;;;5.20;2.00;;;;;;;;;;5089451;28;20050;-41
2021/12/26 07:17:10;;;;;;;6.88;1.88;;;;;;;;;;5089770;28;20085;-40
2021/12/26 07:19:37;;;;;;;7.45;2.60;;;;;;;;;;5089613;28;20060;-41
2021/12/26 07:22:03;;;;;;;5.65;2.10;;;;;;;;;;5089432;28;20138;-41
2021/12/26 07:24:31;;;;;;;5.65;2.33;;;;;;;;;;5088201;28;20048;-41
2021/12/26 07:26:57;;;;;;;6.97;2.33;;;;;;;;;;5088630;28;20052;-41
2021/12/26 07:29:23;;;;;;;4.65;2.15;;;;;;;;;;5087624;28;20052;-42
2021/12/26 07:31:52;;;;;;;4.18;2.05;;;;;;;;;;5089131;28;20270;-41
2021/12/26 07:34:18;;;;;;;5.82;2.20;;;;;;;;;;5089687;28;20048;-41
2021/12/26 07:36:44;;;;;;;4.80;2.03;;;;;;;;;;5089496;28;20044;-41
2021/12/26 07:39:10;;;;;;;5.90;2.38;;;;;;;;;;5089928;28;20048;-41
2021/12/26 07:41:36;;;;;;;5.63;2.15;;;;;;;;;;5089598;28;20084;-41
2021/12/26 07:44:03;;;;;;;5.32;2.13;;;;;;;;;;5089496;28;20044;-42
2021/12/26 07:46:31;;;;;;;6.07;2.10;;;;;;;;;;5089252;28;20527;-41
2021/12/26 07:48:57;;;;;;;7.75;2.60;;;;;;;;;;5077400;28;20582;-40
2021/12/26 07:51:23;;;;;;;6.68;2.88;;;;;;;;;;5069422;28;20052;-42
2021/12/26 07:53:51;;;;;;;6.18;2.50;;;;;;;;;;5069196;28;20413;-43
2021/12/26 07:56:18;;;;;;;6.68;2.60;;;;;;;;;;5069326;28;20053;-43
2021/12/26 07:58:44;;;;;;;6.30;2.60;;;;;;;;;;5068404;28;20052;-41
2021/12/26 08:01:10;;;;;;;7.05;2.00;;;;;;;;;;5068731;28;20048;-41
2021/12/26 08:03:37;;;;;;;9.13;2.72;;;;;;;;;;5067231;28;20467;-41
2021/12/26 08:06:03;;;;;;;4.80;2.33;;;;;;;;;;5068188;28;20045;-42
2021/12/26 08:08:29;;;;;;;7.93;2.08;;;;;;;;;;5068304;28;20076;-41
2021/12/26 08:10:55;;;;;;;6.38;2.40;;;;;;;;;;5068166;28;20059;-40
2021/12/26 08:13:21;;;;;;;6.05;2.80;;;;;;;;;;5068470;28;20044;-40
2021/12/26 08:15:49;;;;;;;5.95;2.17;;;;;;;;;;5068052;28;20133;-41
2021/12/26 08:18:15;;;;;;;7.20;2.78;;;;;;;;;;5068149;28;20496;-42
2021/12/26 08:20:41;;;;;;;5.03;2.40;;;;;;;;;;5067960;28;20044;-41
2021/12/26 08:23:07;;;;;;;7.00;2.42;;;;;;;;;;5068176;28;20047;-42
2021/12/26 08:25:33;;;;;;;6.32;2.65;;;;;;;;;;5067849;28;20048;-40
2021/12/26 08:27:59;;;;;;;5.60;3.00;;;;;;;;;;5066376;28;20051;-41
2021/12/26 08:30:27;;;;;;;6.13;2.70;;;;;;;;;;5066386;28;20754;-41
2021/12/26 08:32:57;;;;;;;8.18;3.45;;;;;;;;;;5067716;28;20135;-41
2021/12/26 08:35:23;;;;;;;9.30;3.17;;;;;;;;;;5067323;28;20182;-41
2021/12/26 08:37:50;;;;;;;9.63;2.78;;;;;;;;;;5067578;28;20067;-41
2021/12/26 08:40:16;;;;;;;5.10;2.42;;;;;;;;;;5067596;28;20519;-41
2021/12/26 08:42:42;;;;;;;6.00;2.65;;;;;;;;;;5067830;28;20054;-41
2021/12/26 08:45:08;;;;;;;5.80;2.78;;;;;;;;;;5068303;28;20048;-41
2021/12/26 08:47:34;;;;;;;5.18;2.60;;;;;;;;;;5068052;28;20102;-40
2021/12/26 08:50:01;;;;;;;7.18;2.72;;;;;;;;;;5068370;28;20048;-41
2021/12/26 08:52:27;;;;;;;5.38;2.47;;;;;;;;;;5068234;28;20051;-40
2021/12/26 08:54:53;;;;;;;7.07;2.65;;;;;;;;;;5068086;28;20048;-40
2021/12/26 08:57:19;;;;;;;6.30;2.75;;;;;;;;;;5068228;28;20047;-41
2021/12/26 08:59:47;;;;;;;4.97;2.50;;;;;;;;;;5067947;28;20520;-45
2021/12/26 09:02:13;;;;;;;5.50;2.75;;;;;;;;;;5068284;28;20127;-42
2021/12/26 09:04:40;;;;;;;4.25;2.35;;;;;;;;;;5066887;28;20052;-44
2021/12/26 09:07:09;;;;;;;6.57;3.10;;;;;;;;;;5067666;28;20079;-47
2021/12/26 09:09:35;;;;;;;6.28;2.65;;;;;;;;;;5067282;28;20045;-45
2021/12/26 09:12:01;;;;;;;8.25;2.75;;;;;;;;;;5066402;28;20053;-43
2021/12/26 09:14:31;;;;;;;6.07;2.42;;;;;;;;;;5067476;28;20097;-43
2021/12/26 09:16:58;;;;;;;5.88;3.33;;;;;;;;;;5067095;28;20692;-44
2021/12/26 09:19:27;;;;;;;6.05;2.50;;;;;;;;;;5067394;28;20478;-45
2021/12/26 09:21:54;;;;;;;7.00;3.45;;;;;;;;;;5067189;28;20411;-46
2021/12/26 09:24:20;;;;;;;5.78;3.10;;;;;;;;;;5067188;28;20540;-43
2021/12/26 09:26:46;;;;;;;6.40;3.85;;;;;;;;;;5079274;28;20447;-42
2021/12/26 09:29:12;;;;;;;6.40;3.05;;;;;;;;;;5087459;28;20561;-42
2021/12/26 09:31:38;;;;;;;5.03;2.70;;;;;;;;;;5087558;28;20090;-41
2021/12/26 09:34:04;;;;;;;5.35;2.88;;;;;;;;;;5087615;28;20055;-43
2021/12/26 09:36:32;;;;;;;4.88;2.40;;;;;;;;;;5087263;28;20507;-41
2021/12/26 09:38:59;;;;;;;6.95;3.05;;;;;;;;;;5087298;28;20377;-45
2021/12/26 09:41:25;;;;;;;5.78;3.13;;;;;;;;;;5087257;28;20099;-42
2021/12/26 09:43:51;;;;;;;6.20;3.05;;;;;;;;;;5087406;28;20044;-47
2021/12/26 09:46:17;;;;;;;8.30;3.08;;;;;;;;;;5087254;28;20052;-49
2021/12/26 09:48:43;;;;;;;9.40;3.50;;;;;;;;;;5089601;28;20439;-45
2021/12/26 09:51:09;;;;;;;6.07;2.85;;;;;;;;;;5091561;28;20139;-46
2021/12/26 09:53:37;;;;;;;5.20;2.75;;;;;;;;;;5091238;28;20496;-41
2021/12/26 09:56:04;;;;;;;5.80;2.83;;;;;;;;;;5091468;28;20404;-46
2021/12/26 09:58:30;;;;;;;7.35;3.40;;;;;;;;;;5091967;28;20048;-45
2021/12/26 10:00:56;;;;;;;6.80;3.15;;;;;;;;;;5091728;28;20173;-44
2021/12/26 10:03:23;;;;;;;7.38;2.90;;;;;;;;;;5091824;28;20394;-45
2021/12/26 10:05:59;;;;;;;6.15;3.30;;;;;;;;;;5091607;28;20535;-45
2021/12/26 10:08:25;;;;;;;6.43;3.20;;;;;;;;;;5089401;28;20147;-41
2021/12/26 10:11:06;;;;;;;4.45;2.72;;;;;;;;;;5091730;28;20040;-42
2021/12/26 10:13:39;;;;;;;5.95;3.15;;;;;;;;;;5091619;28;20040;-41
2021/12/26 10:16:05;;;;;;;10.13;3.38;;;;;;;;;;5091345;28;20083;-42
2021/12/26 10:18:39;;;;;;;10.25;3.25;;;;;;;;;;5088479;28;20091;-44
2021/12/26 10:21:21;;;;;;;5.20;2.70;;;;;;;;;;5089583;28;20047;-41
2021/12/26 10:23:47;;;;;;;8.07;2.95;;;;;;;;;;5091275;28;20055;-41
2021/12/26 10:26:24;;;;;;;5.55;2.85;;;;;;;;;;5091571;28;20051;-42
2021/12/26 10:29:08;;;;;;;6.53;3.08;;;;;;;;;;5091097;28;20135;-41
2021/12/26 10:31:37;;;;;;;6.65;2.85;;;;;;;;;;5090468;28;20555;-41
2021/12/26 10:34:03;;;;;;;6.45;3.00;;;;;;;;;;5090471;28;20050;-44
2021/12/26 10:36:30;;;;;;;5.28;3.10;;;;;;;;;;5090016;28;20598;-46
2021/12/26 10:39:13;;;;;;;7.85;3.50;;;;;;;;;;5090033;28;20131;-44
2021/12/26 10:41:43;;;;;;;5.70;2.97;;;;;;;;;;5088649;28;20046;-46
2021/12/26 10:44:32;;;;;;;6.30;3.13;;;;;;;;;;5090304;28;20056;-45
2021/12/26 10:47:04;;;;;;;6.75;3.05;;;;;;;;;;5026775;28;20552;-46
2021/12/26 10:49:35;;;;;;;6.50;3.60;;;;;;;;;;5026992;28;20049;-42
2021/12/26 10:52:02;;;;;;;5.63;2.70;;;;;;;;;;5026850;28;20049;-44
2021/12/26 10:54:31;;;;;;;5.65;3.00;;;;;;;;;;5027011;28;20525;-43
2021/12/26 10:57:03;;;;;;;7.32;3.20;;;;;;;;;;5026640;28;20248;-43
2021/12/26 10:59:29;;;;;;;5.78;2.92;;;;;;;;;;5026371;28;20042;-44
2021/12/26 11:01:56;;;;;;;6.57;3.10;;;;;;;;;;5026522;28;20103;-43
2021/12/26 11:04:24;;;;;;;6.45;3.08;;;;;;;;;;5026761;28;20057;-42
2021/12/26 11:07:00;;;;;;;6.88;2.88;;;;;;;;;;5026385;28;20057;-44
2021/12/26 11:09:28;;;;;;;5.78;3.00;;;;;;;;;;5026665;28;20049;-42
2021/12/26 11:12:01;;;;;;;4.80;2.38;;;;;;;;;;5026251;28;20045;-47
2021/12/26 11:14:28;;;;;;;6.47;3.08;;;;;;;;;;5026710;28;20779;-44
2021/12/26 11:16:54;;;;;;;6.53;2.95;;;;;;;;;;5026289;28;20477;-45
2021/12/26 11:19:49;;;;;;;5.90;3.03;;;;;;;;;;5026856;28;20060;-43
2021/12/26 11:22:15;;;;;;;7.28;3.08;;;;;;;;;;4930355;29;20095;-45
2021/12/26 11:24:41;;;;;;;5.85;2.83;;;;;;;;;;4979118;28;20112;-42
2021/12/26 11:27:09;;;;;;;8.85;3.22;;;;;;;;;;5007752;28;20530;-42
2021/12/26 11:29:35;;;;;;;5.90;2.95;;;;;;;;;;4990814;28;20054;-46
2021/12/26 11:32:01;;;;;;;5.97;3.33;;;;;;;;;;5007407;28;20522;-46
2021/12/26 11:34:28;;;;;;;6.05;3.05;;;;;;;;;;5007295;28;20463;-46
2021/12/26 11:36:54;;;;;;;6.85;3.08;;;;;;;;;;5007106;28;20573;-46
2021/12/26 11:39:20;;;;;;;6.05;3.03;;;;;;;;;;5007126;28;20050;-46
2021/12/26 11:42:11;;;;;;;5.15;2.80;;;;;;;;;;5006944;28;20137;-46
2021/12/26 11:44:55;;;;;;;8.65;3.45;;;;;;;;;;5006823;28;20115;-43
2021/12/26 11:47:28;;;;;;;5.88;2.90;;;;;;;;;;5007317;28;20054;-47
2021/12/26 11:50:22;;;;;;;;;;;-1.20;99.90;;;;;;5007265;28;20049;-47
2021/12/26 11:53:03;;;;;;;5.45;2.53;;;;;;;;;;4928967;29;19926;-41
2021/12/26 11:55:29;;;;;;;6.82;2.97;;;;;;;;;;4928844;29;20054;-42
2021/12/26 11:58:14;;;;;;;5.53;2.67;;;;;;;;;;4947145;28;20494;-42
2021/12/26 12:00:41;;;;;;;5.53;2.60;;;;;;;;;;5025671;28;20054;-41
2021/12/26 12:03:17;;;;;;;4.72;2.40;;;;;;;;;;5025860;28;20072;-42
2021/12/26 12:05:44;;;;;;;6.00;2.67;;;;;;;;;;5025747;28;20045;-41
2021/12/26 12:08:17;;;;;;;6.13;2.95;;;;;;;;;;5025606;28;20069;-42
2021/12/26 12:10:56;;;;;;;5.40;2.58;;;;;;;;;;5024878;28;20068;-41
2021/12/26 12:13:22;;;;;;;7.25;3.05;;;;;;;;;;5009327;28;20061;-46
2021/12/26 12:15:48;;;;;;;6.55;2.60;;;;;;;;;;5019807;28;20061;-41
2021/12/26 12:18:24;;;;;;;5.10;2.63;;;;;;;;;;5000172;28;20046;-42
2021/12/26 12:21:08;;;;;;;5.75;2.80;;;;;;;;;;5008077;28;20049;-43
2021/12/26 12:23:34;;;;;;;8.27;3.00;;;;;;;;;;5024517;28;20050;-43
2021/12/26 12:26:01;;;;;;;8.35;2.75;;;;;;;;;;5024301;28;20073;-42
2021/12/26 12:28:29;;;;;;;5.95;2.78;;;;;;;;;;5036252;28;20084;-41
2021/12/26 12:31:18;;;;;;;5.38;2.45;;;;;;;;;;5088014;28;20116;-41
2021/12/26 12:33:47;;;;;;;7.43;3.20;;;;;;;;;;5025003;28;20054;-42
2021/12/26 12:36:25;;;;;;;6.68;3.17;;;;;;;;;;5025187;28;20053;-41
2021/12/26 12:38:51;;;;;;;8.18;3.53;;;;;;;;;;5024942;28;20054;-41
2021/12/26 12:41:29;;;;;;;9.35;3.10;;;;;;;;;;5025050;28;20049;-43
2021/12/26 12:43:56;;;;;;;7.45;3.30;;;;;;;;;;5024936;28;20601;-42
2021/12/26 12:46:22;;;;;;;5.28;2.72;;;;;;;;;;5008687;28;20103;-43
2021/12/26 12:49:08;;;;;;;6.28;3.08;;;;;;;;;;5025483;28;20450;-41
2021/12/26 12:51:44;;;;;;;7.25;3.20;;;;;;;;;;5009509;28;20393;-44
2021/12/26 12:54:35;;;;;;;10.18;3.63;;;;;;;;;;5025763;28;20511;-42
2021/12/26 12:57:03;;;;;;;7.55;3.20;;;;;;;;;;5022645;28;20056;-41
2021/12/26 12:59:33;;;;;;;5.70;2.70;;;;;;;;;;5005862;28;20493;-41
2021/12/26 13:02:06;;;;;;;6.90;3.72;;;;;;;;;;5017548;28;20056;-46
2021/12/26 13:04:50;;;;;;;7.05;3.33;;;;;;;;;;5025310;28;20053;-41
2021/12/26 13:07:20;;;;;;;6.07;3.00;;;;;;;;;;5025357;28;20065;-46
2021/12/26 13:09:48;;;;;;;6.90;2.90;;;;;;;;;;5031559;28;20057;-42
2021/12/26 13:12:16;;;;;;;7.70;3.20;;;;;;;;;;5087732;28;20512;-42
2021/12/26 13:14:42;;;;;;;6.82;3.35;;;;;;;;;;5087906;28;20156;-42
2021/12/26 13:17:16;;;;;;;7.10;3.17;;;;;;;;;;5087678;28;20575;-42
2021/12/26 13:19:42;;;;;;;6.88;3.17;;;;;;;;;;5087298;28;20040;-41
2021/12/26 13:22:08;;;;;;;7.20;3.22;;;;;;;;;;5087460;28;20097;-41
2021/12/26 13:24:36;;;;;;;6.55;3.33;;;;;;;;;;5087638;28;20054;-45
2021/12/26 13:27:05;;;;;;;6.90;3.65;;;;;;;;;;5087441;28;20134;-42
2021/12/26 13:29:31;;;;;;;6.15;3.40;;;;;;;;;;5087324;28;20528;-41
2021/12/26 13:31:57;;;;;;;7.95;3.35;;;;;;;;;;5087135;28;20048;-41
2021/12/26 13:34:23;;;;;;;8.05;3.55;;;;;;;;;;5087259;28;20048;-42
2021/12/26 13:36:49;;;;;;;7.55;3.60;;;;;;;;;;5086986;28;20113;-41
2021/12/26 13:39:17;;;;;;;8.85;3.50;;;;;;;;;;5087359;28;20051;-41
2021/12/26 13:41:45;;;;;;;9.18;3.33;;;;;;;;;;5087058;28;20048;-41
2021/12/26 13:44:12;;;;;;;8.48;3.22;;;;;;;;;;5087366;28;20040;-43
2021/12/26 13:46:38;;;;;;;7.80;3.47;;;;;;;;;;5087429;28;20048;-41
2021/12/26 13:49:08;;;;;;;7.40;3.20;;;;;;;;;;5087113;28;20056;-41
2021/12/26 13:51:38;;;;;;;8.77;3.15;;;;;;;;;;5087169;28;20114;-43
2021/12/26 13:54:08;;;;;;;7.30;3.05;;;;;;;;;;5087228;28;20040;-41
2021/12/26 13:57:03;;;;;;;9.13;4.22;;;;;;;;;;5087281;28;20048;-42
2021/12/26 13:59:29;;;;;;;7.63;3.60;;;;;;;;;;5024242;28;20145;-47
2021/12/26 14:01:58;;;;;;;7.25;3.50;;;;;;;;;;5024039;28;20064;-49
2021/12/26 14:04:24;;;;;;;7.10;3.72;;;;;;;;;;5022993;28;20084;-44
2021/12/26 14:06:50;;;;;;;7.55;3.90;;;;;;;;;;5022899;28;20072;-46
2021/12/26 14:09:17;;;;;;;7.03;3.13;;;;;;;;;;5024487;28;20054;-47
2021/12/26 14:11:43;;;;;;;7.30;3.35;;;;;;;;;;5024530;28;20042;-45
2021/12/26 14:14:09;;;;;;;7.32;3.85;;;;;;;;;;5022830;28;20638;-47
2021/12/26 14:16:41;;;;;;;8.38;3.53;;;;;;;;;;5008233;28;20057;-46
2021/12/26 14:19:11;;;;;;;8.15;3.70;;;;;;;;;;5024919;28;20049;-43
2021/12/26 14:21:41;;;;;;;9.07;4.15;;;;;;;;;;5024681;28;20053;-45
2021/12/26 14:24:07;;;;;;;8.73;3.60;;;;;;;;;;5024655;28;20085;-46
2021/12/26 14:26:39;;;;;;;9.48;3.58;;;;;;;;;;5024494;28;20051;-47
2021/12/26 14:29:09;;;;;;;6.50;3.40;;;;;;;;;;5023671;28;20409;-43
2021/12/26 14:31:37;;;;;;;6.38;3.47;;;;;;;;;;5007610;28;20087;-44
2021/12/26 14:34:05;;;;;;;7.75;3.92;;;;;;;;;;5024601;28;20052;-42
2021/12/26 14:36:31;;;;;;;9.13;3.67;;;;;;;;;;5074961;28;20100;-42
2021/12/26 14:38:57;;;;;;;8.50;4.05;;;;;;;;;;5090151;28;20044;-46
2021/12/26 14:41:33;;;;;;;6.68;2.78;;;;;;;;;;5090156;28;20177;-47
2021/12/26 14:43:59;;;;;;;8.30;3.42;;;;;;;;;;5085403;28;20508;-41
2021/12/26 14:46:27;;;;;;;8.57;3.95;;;;;;;;;;5082361;28;20043;-42
2021/12/26 14:48:53;;;;;;;6.93;3.17;;;;;;;;;;5081359;28;20051;-41
2021/12/26 14:51:19;;;;;;;6.50;3.20;;;;;;;;;;5074894;28;20096;-41